Time;durP1;ratioP1;P1;durP2;ratioP2;P2;SDS_P1;SDS_P2;PMS_P1;PMS_P2;Temp;Humidity;BMP_temperature;BMP_pressure;BME280_temperature;BME280_humidity;BME280_pressure;Samples;Min_cycle;Max_cycle;Signal;HPM_P1;HPM_P2
2022/05/19 00:04:00;;;;;;;13.18;6.60;;;;;;;7.39;49.06;101275.77;1998338;88;31099;-76
2022/05/19 00:07:04;;;;;;;15.45;6.62;;;;;;;7.34;49.26;101275.87;2016907;88;32910;-77
2022/05/19 00:10:09;;;;;;;12.13;6.50;;;;;;;7.30;49.29;101280.39;2017193;88;29300;-72
2022/05/19 00:13:11;;;;;;;13.37;6.10;;;;;;;7.25;49.32;101276.06;2017231;88;27812;-70
2022/05/19 00:16:19;;;;;;;12.30;6.20;;;;;;;7.22;49.66;101274.79;2013161;86;28776;-67
2022/05/19 00:19:28;;;;;;;12.80;5.97;;;;;;;7.18;49.58;101269.98;2004040;88;27996;-65
2022/05/19 00:22:38;;;;;;;13.30;6.80;;;;;;;7.19;49.65;101274.84;2004606;88;32996;-65
2022/05/19 00:25:47;;;;;;;12.47;6.35;;;;;;;7.18;49.87;101269.09;2003128;88;30792;-66
2022/05/19 00:29:01;;;;;;;12.33;5.60;;;;;;;7.18;49.80;101274.41;2003784;88;28014;-66
2022/05/19 00:32:03;;;;;;;10.78;6.08;;;;;;;7.18;50.08;101273.98;2003143;88;29098;-65
2022/05/19 00:35:10;;;;;;;11.10;6.47;;;;;;;7.17;49.84;101272.66;2004608;88;31036;-64
2022/05/19 00:38:15;;;;;;;9.20;5.25;;;;;;;7.13;50.16;101268.72;2004611;88;32957;-64
2022/05/19 00:41:20;;;;;;;10.50;5.00;;;;;;;7.14;50.13;101269.61;2004753;88;33895;-64
2022/05/19 00:44:26;;;;;;;11.60;4.70;;;;;;;7.15;50.35;101266.91;2004847;88;27994;-64
2022/05/19 00:47:43;;;;;;;10.78;5.08;;;;;;;7.18;50.32;101263.32;2004650;88;29371;-64
2022/05/19 00:50:52;;;;;;;9.30;4.83;;;;;;;7.20;50.21;101261.47;2002810;88;31044;-66
2022/05/19 00:53:59;;;;;;;8.43;4.47;;;;;;;7.21;50.29;101263.70;2009865;88;33387;-64
2022/05/19 00:57:15;;;;;;;10.78;4.80;;;;;;;7.21;50.28;101259.70;2049008;85;29311;-66
2022/05/19 01:00:24;;;;;;;8.70;4.47;;;;;;;7.21;50.16;101264.56;2067112;85;28035;-65
2022/05/19 01:03:34;;;;;;;7.53;4.62;;;;;;;7.20;50.27;101257.95;2066056;85;28747;-64
2022/05/19 01:06:39;;;;;;;8.18;4.25;;;;;;;7.19;49.97;101260.19;2067217;85;31157;-64
2022/05/19 01:09:44;;;;;;;8.18;4.37;;;;;;;7.18;50.14;101264.66;2066943;85;33035;-64
2022/05/19 01:12:51;;;;;;;9.07;4.83;;;;;;;7.19;50.19;101258.85;2067536;85;29339;-64
2022/05/19 01:16:03;;;;;;;9.10;4.45;;;;;;;7.16;50.21;101258.47;2066997;85;28079;-65
2022/05/19 01:19:19;;;;;;;12.30;3.17;;;;;;;7.16;50.33;101259.80;2067312;85;28779;-64
2022/05/19 01:22:51;;;;;;;10.48;4.40;;;;;;;7.15;50.23;101255.38;2067167;85;32399;-65
2022/05/19 01:26:20;;;;;;;11.30;4.25;;;;;;;7.13;50.13;101254.06;2069716;85;33028;-63
2022/05/19 01:29:34;;;;;;;11.20;4.47;;;;;;;7.12;50.21;101253.63;2069713;85;29815;-64
2022/05/19 01:32:39;;;;;;;9.15;4.75;;;;;;;7.11;50.37;101257.67;2070275;85;27916;-64
2022/05/19 01:35:49;;;;;;;9.33;4.78;;;;;;;7.09;50.31;101258.16;2070351;85;28768;-64
2022/05/19 01:39:08;;;;;;;8.85;4.62;;;;;;;7.05;50.40;101256.02;2070301;85;31036;-63
2022/05/19 01:42:24;;;;;;;7.40;4.60;;;;;;;7.01;50.54;101259.64;2070056;85;32967;-63
2022/05/19 01:45:40;;;;;;;8.93;4.50;;;;;;;6.95;50.89;101259.30;2070593;85;27899;-64
2022/05/19 01:48:57;;;;;;;8.08;4.87;;;;;;;6.91;50.82;101262.06;2070798;84;27943;-63
2022/05/19 01:52:27;;;;;;;7.58;4.95;;;;;;;6.86;51.05;101265.26;2070302;84;28702;-64
2022/05/19 01:55:57;;;;;;;8.25;4.78;;;;;;;6.80;51.08;101266.25;2070452;85;31425;-64
2022/05/19 01:59:25;;;;;;;8.30;5.30;;;;;;;6.74;51.23;101269.02;2070481;85;33020;-64
2022/05/19 02:03:10;;;;;;;7.53;4.93;;;;;;;6.71;51.37;101269.06;2071058;85;29399;-64
2022/05/19 02:06:39;;;;;;;10.95;5.67;;;;;;;6.65;51.50;101268.73;2070702;85;27976;-64
2022/05/19 02:09:49;;;;;;;11.33;5.90;;;;;;;6.58;52.16;101265.77;2070399;85;29171;-64
2022/05/19 02:12:53;;;;;;;8.40;5.30;;;;;;;6.52;52.07;101266.75;2070401;85;32069;-64
2022/05/19 02:16:02;;;;;;;10.43;6.00;;;;;;;6.49;52.00;101259.68;2070832;85;32971;-64
2022/05/19 02:19:08;;;;;;;12.58;5.90;;;;;;;6.50;52.05;101258.78;2074438;85;29366;-64
2022/05/19 02:22:17;;;;;;;12.05;5.47;;;;;;;6.47;52.18;101257.49;2074331;85;27847;-64
2022/05/19 02:25:48;;;;;;;9.60;5.62;;;;;;;6.44;52.28;101254.02;2074689;85;28820;-64
2022/05/19 02:29:06;;;;;;;9.28;5.28;;;;;;;6.39;52.31;101256.76;2075075;85;31059;-64
2022/05/19 02:32:17;;;;;;;11.10;5.60;;;;;;;6.33;52.53;101251.09;2074682;85;33730;-64
2022/05/19 02:35:24;;;;;;;10.58;5.50;;;;;;;6.29;52.68;101257.83;2074773;85;29361;-63
2022/05/19 02:38:30;;;;;;;13.15;5.15;;;;;;;6.26;52.76;101256.08;2075342;84;27917;-64
2022/05/19 02:41:34;;;;;;;12.98;5.58;;;;;;;6.22;52.82;101256.58;2075104;85;28635;-64
2022/05/19 02:44:38;;;;;;;9.50;5.47;;;;;;;6.18;52.92;101255.33;2075361;85;31025;-64
2022/05/19 02:47:46;;;;;;;11.75;5.65;;;;;;;6.15;53.13;101252.25;2051067;85;33302;-64
2022/05/19 02:50:56;;;;;;;8.95;5.40;;;;;;;6.16;52.98;101256.67;2075040;85;29351;-66
2022/05/19 02:54:09;;;;;;;8.53;4.95;;;;;;;6.18;53.45;101246.02;2074691;85;27916;-64
2022/05/19 02:57:21;;;;;;;9.03;5.30;;;;;;;6.19;53.51;101243.33;2074592;85;29081;-64
2022/05/19 03:00:27;;;;;;;9.05;5.05;;;;;;;6.21;53.46;101240.19;2075098;85;31039;-63
2022/05/19 03:03:32;;;;;;;11.12;5.35;;;;;;;6.24;53.47;101244.58;2075019;85;32959;-64
2022/05/19 03:06:36;;;;;;;9.13;4.58;;;;;;;6.25;53.37;101243.67;2075228;85;29338;-63
2022/05/19 03:09:42;;;;;;;11.68;5.05;;;;;;;6.27;53.56;101233.02;2051550;85;27783;-64
2022/05/19 03:12:47;;;;;;;8.55;5.00;;;;;;;6.28;53.51;101227.66;2074977;85;28645;-65
2022/05/19 03:15:56;;;;;;;17.20;5.75;;;;;;;6.34;53.76;101231.56;2075022;85;31086;-65
2022/05/19 03:19:05;;;;;;;13.05;5.50;;;;;;;6.39;53.79;101235.47;2071446;85;33044;-65
2022/05/19 03:22:10;;;;;;;12.78;5.42;;;;;;;6.44;53.84;101230.95;2070820;85;29357;-65
2022/05/19 03:25:15;;;;;;;16.73;5.12;;;;;;;6.49;53.62;101232.20;2070943;85;27775;-66
2022/05/19 03:28:19;;;;;;;10.60;4.62;;;;;;;6.55;53.68;101230.73;2070611;85;28707;-65
2022/05/19 03:31:23;;;;;;;16.15;5.42;;;;;;;6.61;53.77;101234.63;2070860;85;31038;-65
2022/05/19 03:34:28;;;;;;;8.63;4.97;;;;;;;6.68;53.78;101230.06;2070764;85;32971;-65
2022/05/19 03:37:32;;;;;;;11.57;5.90;;;;;;;6.73;53.91;101232.64;2068350;85;29341;-65
2022/05/19 03:40:37;;;;;;;13.13;5.20;;;;;;;6.76;53.87;101230.82;2068319;85;27939;-65
2022/05/19 03:43:42;;;;;;;9.85;5.40;;;;;;;6.83;53.74;101224.92;2068231;85;28652;-65
2022/05/19 03:46:50;;;;;;;10.13;4.92;;;;;;;6.88;53.63;101225.69;2068269;85;31029;-65
2022/05/19 03:49:58;;;;;;;11.88;5.67;;;;;;;6.93;53.71;101227.82;2068000;85;32998;-65
2022/05/19 03:53:07;;;;;;;11.38;5.47;;;;;;;7.01;53.94;101220.14;2067881;85;29350;-65
2022/05/19 03:56:16;;;;;;;9.03;5.22;;;;;;;7.06;53.86;101232.46;2067973;85;27990;-65
2022/05/19 03:59:26;;;;;;;10.30;5.35;;;;;;;7.15;53.93;101234.06;2067533;85;29127;-65
2022/05/19 04:02:40;;;;;;;13.10;5.35;;;;;;;7.24;53.99;101225.86;2067932;85;31308;-64
2022/05/19 04:05:45;;;;;;;;;;;;;;;7.33;53.76;101221.27;2070258;85;29971;-64
2022/05/19 04:08:54;;;;;;;14.55;5.58;;;;;;;7.41;54.03;101216.20;2067842;85;29341;-64
2022/05/19 04:12:00;;;;;;;13.93;5.10;;;;;;;7.53;53.68;101216.83;2068022;85;27909;-64
2022/05/19 04:15:18;;;;;;;11.18;4.85;;;;;;;7.66;53.82;101214.77;2067814;85;28824;-64
2022/05/19 04:18:24;;;;;;;8.73;5.12;;;;;;;7.78;53.77;101223.81;2066396;85;32191;-64
2022/05/19 04:21:32;;;;;;;11.50;4.55;;;;;;;7.93;53.65;101218.59;2065458;85;33010;-74
2022/05/19 04:24:37;;;;;;;16.00;5.65;;;;;;;8.07;53.67;101215.56;2065568;85;29363;-66
2022/05/19 04:27:42;;;;;;;9.65;5.67;;;;;;;8.24;53.60;101219.61;2065714;85;27950;-65
2022/05/19 04:30:46;;;;;;;9.43;5.25;;;;;;;8.40;53.53;101216.97;2068724;85;28658;-69
2022/05/19 04:33:55;;;;;;;9.53;5.42;;;;;;;8.57;53.59;101225.93;2065139;86;31082;-64
2022/05/19 04:36:59;;;;;;;13.53;5.25;;;;;;;8.86;53.53;101221.59;2020377;85;34310;-63
2022/05/19 04:40:07;;;;;;;8.50;4.85;;;;;;;9.77;53.69;101217.16;2065442;85;29318;-65
2022/05/19 04:43:12;;;;;;;11.63;5.10;;;;;;;11.25;53.17;101214.77;2065621;85;27830;-66
2022/05/19 04:46:23;;;;;;;12.68;4.45;;;;;;;12.91;51.74;101216.56;2065419;85;28652;-64
2022/05/19 04:49:28;;;;;;;11.80;4.75;;;;;;;14.61;50.59;101198.59;2064872;85;31020;-64
2022/05/19 04:52:36;;;;;;;8.18;4.58;;;;;;;16.16;48.33;101191.47;2064860;85;32988;-64
2022/05/19 04:55:43;;;;;;;11.83;5.42;;;;;;;17.44;46.42;101176.03;2064751;85;29265;-64
2022/05/19 04:58:49;;;;;;;12.95;5.30;;;;;;;18.86;44.89;101188.70;2064120;86;27820;-65
2022/05/19 05:01:57;;;;;;;10.35;4.90;;;;;;;19.91;43.25;101197.09;2064776;86;28875;-65
2022/05/19 05:05:03;;;;;;;13.93;5.20;;;;;;;20.84;42.11;101193.63;2064842;85;31023;-65
2022/05/19 05:08:10;;;;;;;12.15;5.60;;;;;;;21.91;39.79;101189.13;2065203;86;32991;-66
2022/05/19 05:11:15;;;;;;;10.23;4.72;;;;;;;22.70;38.63;101193.41;2065684;86;29394;-65
2022/05/19 05:14:21;;;;;;;10.50;4.92;;;;;;;23.53;36.16;101199.37;2066027;85;27928;-65
2022/05/19 05:17:26;;;;;;;7.83;4.53;;;;;;;24.04;36.35;101196.64;2065853;86;28636;-65
2022/05/19 05:20:35;;;;;;;8.95;4.08;;;;;;;24.66;35.98;101192.22;2065537;85;31037;-65
2022/05/19 05:23:42;;;;;;;10.60;4.22;;;;;;;25.27;34.82;101194.16;2065903;85;33068;-65
2022/05/19 05:26:46;;;;;;;18.87;3.95;;;;;;;25.79;32.28;101197.76;2065961;86;29504;-65
2022/05/19 05:29:51;;;;;;;6.80;4.62;;;;;;;26.00;32.54;101198.84;2066170;86;27803;-64
2022/05/19 05:32:58;;;;;;;7.95;4.75;;;;;;;26.22;31.80;101201.66;2065811;86;28659;-65
2022/05/19 05:36:10;;;;;;;8.73;4.50;;;;;;;26.19;31.13;101196.47;2065364;86;31048;-65
2022/05/19 05:39:20;;;;;;;8.48;4.30;;;;;;;26.23;30.18;101203.88;2065850;85;32999;-64
2022/05/19 05:42:25;;;;;;;8.73;4.42;;;;;;;26.20;30.07;101205.06;2066014;86;29323;-65
2022/05/19 05:45:29;;;;;;;11.20;4.37;;;;;;;26.14;29.41;101204.34;2065538;85;27875;-65
2022/05/19 05:48:36;;;;;;;11.80;4.30;;;;;;;26.14;29.44;101200.72;2065816;85;28658;-66
2022/05/19 05:51:46;;;;;;;6.60;3.75;;;;;;;26.25;28.89;101203.22;2065939;85;31268;-65
2022/05/19 05:54:59;;;;;;;9.95;4.83;;;;;;;26.50;28.58;101197.95;2065919;85;32989;-66
2022/05/19 05:58:09;;;;;;;;;;;;;;;26.90;28.44;101192.95;2068237;85;29388;-65
2022/05/19 06:01:19;;;;;;;7.35;3.72;;;;;;;27.32;27.77;101196.27;2065616;85;27963;-66
2022/05/19 06:04:24;;;;;;;9.78;3.75;;;;;;;27.73;27.76;101191.46;2065963;85;28652;-65
2022/05/19 06:07:29;;;;;;;7.00;3.75;;;;;;;28.19;27.11;101193.83;2066003;85;31133;-66
2022/05/19 06:10:33;;;;;;;11.90;3.90;;;;;;;28.65;26.50;101191.41;2065149;86;33051;-65
2022/05/19 06:13:39;;;;;;;4.87;3.67;;;;;;;29.26;26.45;101195.12;2065690;85;29336;-65
2022/05/19 06:16:48;;;;;;;9.83;3.50;;;;;;;29.88;25.59;101193.13;2065675;85;27815;-66
2022/05/19 06:19:54;;;;;;;5.03;3.42;;;;;;;30.25;25.19;101187.39;2065550;84;28630;-65
2022/05/19 06:23:06;;;;;;;5.37;3.20;;;;;;;30.87;24.86;101179.93;2065789;85;31117;-66
2022/05/19 06:26:12;;;;;;;7.30;2.98;;;;;;;31.40;24.12;101183.16;2041893;85;34284;-65
2022/05/19 06:29:23;;;;;;;5.62;2.50;;;;;;;31.79;22.89;101176.41;2065594;85;29369;-65
2022/05/19 06:32:31;;;;;;;7.45;2.80;;;;;;;32.11;23.00;101179.73;2042588;85;27891;-66
2022/05/19 06:35:36;;;;;;;6.42;3.10;;;;;;;32.61;22.84;101178.41;2065731;85;28688;-66
2022/05/19 06:38:43;;;;;;;5.53;2.77;;;;;;;33.10;22.38;101179.41;2065534;85;31029;-66
2022/05/19 06:42:03;;;;;;;9.28;2.60;;;;;;;33.43;21.69;101180.14;2065510;85;32973;-66
2022/05/19 06:45:17;;;;;;;6.03;2.40;;;;;;;33.64;21.17;101182.47;2065526;85;30265;-65
2022/05/19 06:48:21;;;;;;;4.78;2.65;;;;;;;33.82;20.94;101183.30;2065880;85;27989;-66
2022/05/19 06:51:27;;;;;;;5.90;2.80;;;;;;;34.02;20.54;101179.71;2065757;85;28622;-65
2022/05/19 06:54:32;;;;;;;8.35;3.10;;;;;;;34.22;20.34;101176.44;2065661;85;31035;-66
2022/05/19 06:57:40;;;;;;;5.10;2.87;;;;;;;34.47;20.14;101177.77;2068732;85;33989;-66
2022/05/19 07:00:44;;;;;;;6.95;3.10;;;;;;;34.62;19.65;101178.95;2065729;85;29344;-64
2022/05/19 07:03:49;;;;;;;7.62;2.70;;;;;;;34.81;19.51;101179.47;2065925;85;27942;-66
2022/05/19 07:06:59;;;;;;;6.58;2.60;;;;;;;34.98;18.91;101179.87;2064166;85;28688;-64
2022/05/19 07:10:06;;;;;;;4.08;2.12;;;;;;;34.94;18.75;101176.36;2042508;85;31043;-64
2022/05/19 07:13:12;;;;;;;5.30;2.52;;;;;;;34.95;19.00;101169.17;2065514;85;32981;-65
2022/05/19 07:16:17;;;;;;;6.53;2.52;;;;;;;35.07;18.74;101166.58;2065451;85;29401;-65
2022/05/19 07:22:53;;;;;;;5.78;2.70;;;;;;;35.39;18.25;101164.45;2052402;86;28723;-64
2022/05/19 07:25:58;;;;;;;2.62;2.27;;;;;;;35.25;18.28;101162.23;2052807;86;30978;-66
2022/05/19 07:29:07;;;;;;;4.35;2.30;;;;;;;35.37;18.28;101156.84;2053136;86;34504;-65
2022/05/19 07:32:16;;;;;;;4.05;2.55;;;;;;;35.50;18.38;101159.59;2053037;86;29326;-64
2022/05/19 07:35:27;;;;;;;5.50;2.20;;;;;;;35.66;18.32;101154.58;2053723;86;27946;-65
2022/05/19 07:38:34;;;;;;;7.83;2.00;;;;;;;35.62;17.67;101149.13;2052921;86;28656;-65
2022/05/19 07:41:38;;;;;;;10.82;2.30;;;;;;;35.57;17.88;101147.89;2053142;86;31204;-65
2022/05/19 07:44:42;;;;;;;4.25;2.15;;;;;;;35.72;17.84;101155.94;2053133;86;32989;-65
2022/05/19 07:47:47;;;;;;;4.78;2.37;;;;;;;35.83;17.29;101146.01;2053107;86;29332;-65
2022/05/19 07:50:51;;;;;;;9.83;2.52;;;;;;;35.97;17.49;101156.58;2052829;86;27793;-64
2022/05/19 07:53:57;;;;;;;3.12;2.15;;;;;;;35.93;17.58;101153.02;2052704;86;29317;-65
2022/05/19 07:57:04;;;;;;;3.00;1.75;;;;;;;36.10;17.48;101152.81;2052989;86;31032;-65
2022/05/19 08:00:16;;;;;;;6.87;2.20;;;;;;;36.11;17.32;101147.55;2052979;86;33083;-64
2022/05/19 08:03:23;;;;;;;5.12;2.00;;;;;;;36.17;17.14;101151.37;2053132;86;29340;-64
2022/05/19 08:06:30;;;;;;;3.80;1.60;;;;;;;36.09;17.07;101146.08;2053026;86;27792;-65
2022/05/19 08:16:26;;;;;;;6.47;1.80;;;;;;;35.72;16.64;101146.73;2052457;86;34219;-66
2022/05/19 08:19:32;;;;;;;4.83;1.90;;;;;;;35.61;16.39;101141.32;2056473;84;29345;-65
2022/05/19 08:22:37;;;;;;;7.62;1.57;;;;;;;35.59;16.58;101144.31;2065946;85;27844;-67
2022/05/19 08:25:43;;;;;;;4.85;2.00;;;;;;;35.69;16.27;101138.81;2065644;85;28719;-66
2022/05/19 08:28:49;;;;;;;5.65;1.82;;;;;;;35.51;15.83;101133.95;2065749;85;31009;-66
2022/05/19 08:32:01;;;;;;;9.10;2.37;;;;;;;35.25;16.03;101139.40;2065770;85;32982;-66
2022/05/19 08:35:09;;;;;;;5.17;2.10;;;;;;;35.10;15.97;101135.51;2066004;85;29367;-66
2022/05/19 08:38:16;;;;;;;3.70;1.70;;;;;;;35.07;16.09;101136.50;2065804;85;27720;-65
2022/05/19 08:41:37;;;;;;;7.15;2.12;;;;;;;35.11;16.12;101136.35;2065793;85;28656;-66
2022/05/19 08:44:52;;;;;;;6.50;2.40;;;;;;;35.01;15.67;101124.83;2065190;85;31014;-65
2022/05/19 08:48:06;;;;;;;5.42;2.10;;;;;;;34.48;15.88;101126.09;2065623;85;32989;-66
2022/05/19 08:51:17;;;;;;;9.43;2.12;;;;;;;34.37;16.23;101119.22;2065554;85;29340;-65
2022/05/19 08:54:24;;;;;;;5.35;2.10;;;;;;;34.36;16.07;101123.58;2065521;85;27864;-65
2022/05/19 08:57:45;;;;;;;5.62;1.55;;;;;;;34.32;15.97;101119.54;2065393;85;29231;-64
2022/05/19 09:00:58;;;;;;;8.33;2.00;;;;;;;34.36;16.39;101114.72;2065365;86;31088;-65
2022/05/19 09:04:30;;;;;;;5.35;2.10;;;;;;;34.34;15.97;101112.69;2065306;86;31453;-65
2022/05/19 09:08:15;;;;;;;6.55;1.98;;;;;;;34.11;16.04;101108.06;1997075;88;29343;-64
2022/05/19 09:11:27;;;;;;;3.45;1.40;;;;;;;33.75;16.34;101108.75;1978450;89;28065;-65
2022/05/19 09:14:34;;;;;;;5.70;1.98;;;;;;;33.59;15.83;101107.23;1978159;89;28774;-65
2022/05/19 09:17:43;;;;;;;4.58;1.75;;;;;;;33.30;16.51;101107.84;1978566;89;31054;-65
2022/05/19 09:20:53;;;;;;;5.33;1.77;;;;;;;33.21;16.62;101105.77;1978193;89;32993;-64
2022/05/19 09:23:59;;;;;;;2.80;1.60;;;;;;;33.09;16.65;101098.59;1946001;91;29394;-64
2022/05/19 09:27:06;;;;;;;2.52;1.95;;;;;;;33.05;16.72;101108.39;1972472;90;28020;-64
2022/05/19 09:30:38;;;;;;;4.95;1.90;;;;;;;32.99;16.22;101096.70;2014547;88;28652;-65
2022/05/19 09:33:47;;;;;;;4.35;1.82;;;;;;;32.75;16.40;101093.88;2005789;88;31079;-64
2022/05/19 09:37:22;;;;;;;2.02;1.67;;;;;;;32.62;16.73;101095.51;2005070;88;33018;-64
2022/05/19 09:40:35;;;;;;;3.52;1.85;;;;;;;32.56;16.36;101086.09;2012842;85;29312;-63
2022/05/19 09:43:43;;;;;;;4.80;1.75;;;;;;;32.37;16.55;101082.09;2074681;85;27924;-65
2022/05/19 09:46:50;;;;;;;6.87;1.70;;;;;;;32.17;16.71;101079.14;2050375;85;28664;-64
2022/05/19 09:50:09;;;;;;;4.70;2.00;;;;;;;31.93;16.88;101084.07;2074300;85;31045;-64
2022/05/19 09:53:28;;;;;;;3.70;1.67;;;;;;;31.73;16.73;101072.77;2072683;85;33415;-64
2022/05/19 09:56:47;;;;;;;6.20;2.27;;;;;;;31.29;16.23;101063.53;2074537;85;29370;-65
2022/05/19 09:59:53;;;;;;;5.20;1.82;;;;;;;30.92;16.65;101064.02;2067739;85;27927;-65
2022/05/19 10:02:59;;;;;;;5.60;2.12;;;;;;;30.65;16.69;101067.77;2074249;85;28659;-65
2022/05/19 10:06:12;;;;;;;2.83;1.42;;;;;;;30.47;17.05;101060.67;2074285;85;31045;-66
2022/05/19 10:09:25;;;;;;;3.10;1.87;;;;;;;30.22;16.88;101048.17;2073776;85;32816;-64
2022/05/19 10:12:39;;;;;;;2.77;1.72;;;;;;;29.97;16.76;101056.16;2050671;85;30612;-64
2022/05/19 10:15:58;;;;;;;5.25;1.87;;;;;;;29.70;17.01;101058.41;2073130;85;28070;-64
2022/05/19 10:19:32;;;;;;;3.47;1.80;;;;;;;29.54;16.99;101051.11;2074116;85;28726;-63
2022/05/19 10:22:55;;;;;;;4.85;1.50;;;;;;;29.39;17.18;101044.13;2073462;85;32416;-64
2022/05/19 10:26:15;;;;;;;2.52;1.40;;;;;;;29.17;17.29;101043.02;2062436;85;33209;-64
2022/05/19 10:33:29;;;;;;;5.00;1.95;;;;;;;28.89;17.03;101028.84;2073793;85;28009;-65
2022/05/19 10:37:01;;;;;;;3.95;1.27;;;;;;;28.69;17.34;101034.78;2073809;85;28737;-64
2022/05/19 10:40:14;;;;;;;3.30;1.55;;;;;;;28.57;17.59;101034.80;2074298;85;31173;-64
2022/05/19 10:43:55;;;;;;;6.72;1.95;;;;;;;28.34;17.93;101032.28;2073900;85;30027;-64
2022/05/19 10:47:11;;;;;;;5.80;1.92;;;;;;;28.12;18.22;101020.63;2074528;85;29346;-65
2022/05/19 10:50:30;;;;;;;1.80;1.60;;;;;;;28.03;18.63;101015.08;2074069;85;27801;-64
2022/05/19 10:53:56;;;;;;;2.85;1.60;;;;;;;27.96;18.45;101004.94;2074047;85;28726;-65
2022/05/19 10:57:09;;;;;;;3.90;1.40;;;;;;;27.86;18.83;101005.11;2074420;85;31058;-64
2022/05/19 11:00:25;;;;;;;4.03;1.55;;;;;;;27.86;18.83;101003.73;2073781;85;33421;-64
2022/05/19 11:04:07;;;;;;;5.17;1.90;;;;;;;27.75;18.54;101000.31;2074422;85;29341;-65
2022/05/19 11:07:29;;;;;;;3.00;1.70;;;;;;;27.68;17.99;100988.78;2074245;85;27819;-64
2022/05/19 11:11:03;;;;;;;4.45;1.60;;;;;;;27.59;18.56;100986.54;2008373;87;27900;-65
2022/05/19 11:14:28;;;;;;;2.45;1.50;;;;;;;27.53;18.55;100977.58;2008367;88;31480;-64
2022/05/19 11:17:57;;;;;;;2.87;1.82;;;;;;;27.52;18.96;100975.86;2008282;88;33051;-63
2022/05/19 11:21:34;;;;;;;3.12;1.60;;;;;;;27.39;17.99;100974.95;2008037;88;29439;-64
2022/05/19 11:28:48;;;;;;;2.45;1.20;;;;;;;27.18;18.31;100961.69;2008166;88;29345;-63
2022/05/19 11:32:16;;;;;;;2.00;1.37;;;;;;;27.12;18.85;100959.11;2008028;88;31570;-63
2022/05/19 11:35:42;;;;;;;2.37;1.50;;;;;;;27.08;18.51;100956.34;2008790;88;32998;-63
2022/05/19 11:39:00;;;;;;;4.47;1.95;;;;;;;26.95;18.82;100957.70;2008219;88;29187;-64
2022/05/19 11:42:25;;;;;;;2.47;1.67;;;;;;;26.94;18.98;100949.63;2008252;88;28061;-64
2022/05/19 11:45:39;;;;;;;9.35;1.77;;;;;;;26.90;18.71;100939.45;1961109;90;28788;-66
2022/05/19 11:56:21;;;;;;;1.82;1.25;;;;;;;26.87;19.15;100921.07;1959975;90;29552;-65
2022/05/19 11:59:28;;;;;;;4.58;1.40;;;;;;;26.88;19.36;100913.17;1972292;90;28116;-64
2022/05/19 12:02:57;;;;;;;3.35;1.82;;;;;;;26.89;19.27;100911.61;1972360;90;28671;-65
2022/05/19 12:06:16;;;;;;;4.08;1.37;;;;;;;26.89;19.36;100915.73;1971718;90;32363;-63
2022/05/19 12:09:34;;;;;;;4.03;1.70;;;;;;;26.85;19.14;100907.50;1972060;90;33066;-66
2022/05/19 12:12:44;;;;;;;2.65;1.15;;;;;;;26.86;19.14;100906.97;1972486;90;29350;-64
2022/05/19 12:16:01;;;;;;;3.15;1.45;;;;;;;26.83;19.42;100902.16;1971927;90;28085;-64
2022/05/19 12:19:12;;;;;;;2.27;1.70;;;;;;;26.85;19.66;100902.00;1972078;90;28677;-64
2022/05/19 12:22:48;;;;;;;5.70;1.90;;;;;;;26.85;19.52;100899.25;1966794;90;28027;-64
2022/05/19 12:25:59;;;;;;;2.65;1.72;;;;;;;26.80;19.05;100897.52;1909672;90;33190;-63
2022/05/19 12:29:28;;;;;;;2.90;1.42;;;;;;;26.72;19.27;100891.45;1951555;90;30565;-65
2022/05/19 12:32:42;;;;;;;2.15;1.60;;;;;;;26.69;19.38;100878.92;1968528;88;27942;-64
2022/05/19 12:35:54;;;;;;;2.20;1.30;;;;;;;26.69;19.49;100882.16;1928231;90;28742;-64
2022/05/19 12:39:25;;;;;;;4.58;1.45;;;;;;;26.72;19.84;100872.21;1967569;90;31041;-63
2022/05/19 12:42:40;;;;;;;3.87;1.57;;;;;;;26.71;19.42;100871.02;1966638;90;33075;-68
2022/05/19 12:45:54;;;;;;;3.30;2.97;;;;;;;26.69;19.54;100865.67;1971624;90;30090;-64
2022/05/19 12:49:08;;;;;;;;;;;;;;;26.75;19.75;100858.14;1969436;90;27982;-65
2022/05/19 12:52:19;;;;;;;3.08;1.42;;;;;;;26.83;19.51;100863.66;1966537;89;30095;-64
2022/05/19 12:55:32;;;;;;;5.47;1.57;;;;;;;26.84;19.11;100854.92;1967135;90;31090;-65
2022/05/19 12:58:50;;;;;;;4.15;1.42;;;;;;;26.82;19.16;100860.56;1968500;90;34428;-64
2022/05/19 13:01:59;;;;;;;8.63;1.45;;;;;;;26.84;18.90;100860.42;1946845;90;29342;-64
2022/05/19 13:05:07;;;;;;;6.97;3.05;;;;;;;26.88;18.42;100856.80;1969141;90;27925;-64
2022/05/19 13:08:37;;;;;;;3.92;1.60;;;;;;;26.90;18.57;100843.22;1934835;91;29169;-64
2022/05/19 13:11:52;;;;;;;2.27;1.50;;;;;;;26.95;18.73;100834.48;1934769;91;31429;-65
2022/05/19 13:14:59;;;;;;;3.05;1.50;;;;;;;27.03;19.04;100834.47;1935295;91;33036;-63
2022/05/19 13:18:10;;;;;;;3.40;1.65;;;;;;;27.04;18.71;100836.20;1924681;88;29358;-65
2022/05/19 13:21:26;;;;;;;2.72;1.42;;;;;;;27.03;18.93;100835.00;1980567;89;28199;-64
2022/05/19 13:24:38;;;;;;;1.87;1.42;;;;;;;27.01;19.10;100826.91;1958555;89;28729;-64
2022/05/19 13:31:27;;;;;;;3.80;1.50;;;;;;;27.03;18.79;100824.84;1979429;89;32450;-68
2022/05/19 13:34:49;;;;;;;3.15;1.27;;;;;;;27.07;19.05;100821.23;1916181;92;29317;-64
2022/05/19 13:37:54;;;;;;;3.75;1.55;;;;;;;27.13;18.86;100814.55;1917176;92;28080;-65
2022/05/19 13:41:03;;;;;;;2.37;2.05;;;;;;;27.21;18.71;100816.94;1916762;92;28838;-68
2022/05/19 13:44:09;;;;;;;3.85;2.08;;;;;;;27.28;18.74;100809.19;1897037;90;31094;-65
2022/05/19 13:47:23;;;;;;;3.27;1.92;;;;;;;27.35;18.73;100809.35;1997125;88;33363;-70
2022/05/19 13:50:29;;;;;;;3.37;1.65;;;;;;;27.38;18.92;100802.13;1981580;89;29415;-68
2022/05/19 13:53:34;;;;;;;5.28;1.57;;;;;;;27.42;19.30;100799.87;1981746;89;28049;-69
2022/05/19 13:56:46;;;;;;;2.27;1.42;;;;;;;27.44;19.59;100797.31;1981711;89;28669;-66
2022/05/19 13:59:54;;;;;;;9.30;1.92;;;;;;;27.47;19.61;100798.03;1978339;89;31058;-65
2022/05/19 14:03:03;;;;;;;7.53;1.45;;;;;;;27.51;19.29;100794.75;1978400;89;33024;-65
2022/05/19 14:06:09;;;;;;;2.22;1.17;;;;;;;27.53;19.26;100791.81;1978562;89;29331;-64
2022/05/19 14:09:49;;;;;;;3.62;1.30;;;;;;;27.51;19.62;100784.24;1981936;89;27961;-67
2022/05/19 14:12:58;;;;;;;2.40;1.50;;;;;;;27.53;20.40;100787.18;2072296;85;27934;-68
2022/05/19 14:16:06;;;;;;;4.65;1.35;;;;;;;27.59;19.96;100775.45;2094844;84;31058;-67
2022/05/19 14:19:39;;;;;;;4.30;1.80;;;;;;;27.58;20.02;100777.85;2095465;84;32975;-66
2022/05/19 14:22:50;;;;;;;5.40;2.50;;;;;;;27.54;19.83;100771.02;2039793;85;29528;-68
2022/05/19 14:26:02;;;;;;;10.78;1.95;;;;;;;27.52;20.26;100766.70;2030336;87;27769;-65
2022/05/19 14:29:22;;;;;;;7.08;1.77;;;;;;;27.51;20.11;100760.84;2007019;87;28623;-65
2022/05/19 14:32:35;;;;;;;5.40;1.80;;;;;;;27.46;19.68;100747.62;2006847;87;31042;-67
2022/05/19 14:35:52;;;;;;;7.33;1.70;;;;;;;27.41;19.80;100745.37;2031340;87;33048;-69
2022/05/19 14:39:03;;;;;;;6.17;1.90;;;;;;;27.40;19.84;100740.91;2027675;87;29727;-66
2022/05/19 14:45:54;;;;;;;6.90;1.60;;;;;;;27.36;20.34;100727.16;2003551;88;29318;-66
2022/05/19 14:49:05;;;;;;;19.62;1.98;;;;;;;27.34;20.50;100720.97;2003252;88;31088;-67
2022/05/19 14:52:16;;;;;;;2.70;1.40;;;;;;;27.34;20.45;100719.59;1985090;88;32977;-67
2022/05/19 14:55:35;;;;;;;4.37;1.30;;;;;;;27.32;20.35;100719.44;2003035;87;29948;-66
2022/05/19 14:59:05;;;;;;;10.55;1.85;;;;;;;27.36;20.83;100724.94;2060208;85;28200;-65
2022/05/19 15:02:10;;;;;;;9.40;1.42;;;;;;;27.37;20.64;100719.24;2105331;84;28670;-66
2022/05/19 15:05:15;;;;;;;2.08;1.20;;;;;;;27.34;20.39;100714.62;2104689;84;31026;-67
2022/05/19 15:08:20;;;;;;;5.12;1.80;;;;;;;27.32;20.65;100713.94;2104563;84;33099;-67
2022/05/19 15:11:27;;;;;;;7.50;1.52;;;;;;;27.35;21.03;100705.33;2101859;84;29244;-67
2022/05/19 15:14:34;;;;;;;4.35;1.80;;;;;;;27.39;20.84;100707.55;2103860;84;28061;-65
2022/05/19 15:17:40;;;;;;;5.33;1.57;;;;;;;27.42;21.01;100705.82;2102440;83;27937;-67
2022/05/19 15:20:48;;;;;;;9.95;2.15;;;;;;;27.43;20.91;100700.66;2078074;83;31156;-67
2022/05/19 15:23:55;;;;;;;7.50;1.72;;;;;;;27.44;21.09;100702.38;2063732;85;32988;-66
2022/05/19 15:27:02;;;;;;;3.83;1.37;;;;;;;27.47;21.09;100708.06;2041132;85;29429;-67
2022/05/19 15:30:14;;;;;;;9.15;1.90;;;;;;;27.49;21.16;100703.75;2063422;85;28087;-66